Time,TemperatureF,DewpointF,PressureIn,WindDirection,WindDirectionDegrees,WindSpeedMPH,WindSpeedGustMPH,Humidity,HourlyPrecipIn,Conditions,Clouds,dailyrainin,SoftwareType,DateUTC
2013-02-13 00:00:00,52.3,50.3,30.02,NNW,338,2.3,2.3,93,0.05,RA,,0.00,WeatherDisplay:10.37,2013-02-13 05:00:00,
2013-02-13 00:05:00,52.2,50.2,30.02,NNE,22,3.5,3.5,93,0.04,RA,,0.01,WeatherDisplay:10.37,2013-02-13 05:05:00,
2013-02-13 00:10:00,52.0,49.2,30.02,NE,45,3.5,3.5,90,0.06,RA,,0.02,WeatherDisplay:10.37,2013-02-13 05:10:00,
2013-02-13 00:15:00,51.8,48.1,30.00,NNE,22,0.0,0.0,87,0.00,RA,,0.03,WeatherDisplay:10.37,2013-02-13 05:15:00,
2013-02-13 00:20:00,51.8,48.1,30.00,NNE,22,0.0,0.0,87,0.01,RA,,0.04,WeatherDisplay:10.37,2013-02-13 05:20:00,
2013-02-13 00:25:00,51.8,48.1,30.00,NNE,22,0.0,0.0,87,0.01,RA,,0.04,WeatherDisplay:10.37,2013-02-13 05:25:00,
2013-02-13 00:30:00,51.6,49.6,30.00,NNE,22,0.0,0.0,93,0.01,,,0.04,WeatherDisplay:10.37,2013-02-13 05:30:00,
2013-02-13 00:35:00,51.6,49.6,30.00,NNE,22,0.0,0.0,93,0.01,RA,,0.05,WeatherDisplay:10.37,2013-02-13 05:35:00,
2013-02-13 00:40:00,51.6,49.6,29.98,NNE,22,0.0,0.0,93,0.02,RA,,0.06,WeatherDisplay:10.37,2013-02-13 05:40:00,
2013-02-13 00:45:00,51.4,49.4,29.98,NNE,22,0.0,0.0,93,0.01,RA,,0.06,WeatherDisplay:10.37,2013-02-13 05:45:00,
2013-02-13 00:50:00,51.4,49.4,29.98,NNE,22,0.0,0.0,93,0.02,RA,,0.07,WeatherDisplay:10.37,2013-02-13 05:50:00,
2013-02-13 00:55:00,51.3,48.5,29.99,NNE,22,0.0,0.0,90,0.01,RA,,0.08,WeatherDisplay:10.37,2013-02-13 05:55:00,
2013-02-13 01:00:00,51.3,48.8,29.99,NNE,22,0.0,0.0,91,0.08,RA,,0.08,WeatherDisplay:10.37,2013-02-13 06:00:00,
2013-02-13 01:05:00,51.3,47.9,29.98,NNE,22,0.0,0.0,88,0.08,RA,,0.08,WeatherDisplay:10.37,2013-02-13 06:05:00,
2013-02-13 01:10:00,51.1,49.1,29.98,NNW,338,1.1,0.0,93,0.06,CLR,,0.08,WeatherDisplay:10.37,2013-02-13 06:10:00,
2013-02-13 01:15:00,51.1,49.1,30.00,NNW,338,0.0,0.0,93,0.06,RA,,0.09,WeatherDisplay:10.37,2013-02-13 06:15:00,
2013-02-13 01:20:00,50.9,48.9,30.00,NE,45,0.0,0.0,93,0.06,RA,,0.10,WeatherDisplay:10.37,2013-02-13 06:20:00,
2013-02-13 01:25:00,50.9,48.9,30.00,East,90,3.5,0.0,93,0.07,RA,,0.11,WeatherDisplay:10.37,2013-02-13 06:25:00,
2013-02-13 01:30:00,50.7,48.7,29.97,East,90,1.1,1.1,93,0.07,RA,,0.12,WeatherDisplay:10.37,2013-02-13 06:30:00,
2013-02-13 01:35:00,50.7,48.7,29.97,East,90,2.3,2.4,93,0.07,RA,,0.12,WeatherDisplay:10.37,2013-02-13 06:35:00,
2013-02-13 01:40:00,50.7,48.7,29.94,SE,135,2.3,2.3,93,0.07,RA,,0.13,WeatherDisplay:10.37,2013-02-13 06:40:00,
2013-02-13 01:45:00,50.5,48.6,29.94,SE,135,2.5,2.5,93,0.08,RA,,0.14,WeatherDisplay:10.37,2013-02-13 06:45:00,
2013-02-13 01:50:00,50.5,48.6,29.94,East,90,0.0,0.0,93,0.08,RA,,0.15,WeatherDisplay:10.37,2013-02-13 06:50:00,
2013-02-13 01:55:00,50.4,48.5,29.95,East,90,0.0,0.0,93,0.09,RA,,0.16,WeatherDisplay:10.37,2013-02-13 06:55:00,
2013-02-13 02:00:00,50.4,48.5,29.95,East,90,0.0,0.0,93,0.09,RA,,0.17,WeatherDisplay:10.37,2013-02-13 07:00:00,
2013-02-13 02:05:00,50.4,48.5,29.94,East,90,3.5,3.5,93,0.10,RA,,0.18,WeatherDisplay:10.37,2013-02-13 07:05:00,
2013-02-13 02:10:00,50.2,48.3,29.94,NE,45,3.5,3.5,93,0.10,RA,,0.19,WeatherDisplay:10.37,2013-02-13 07:10:00,
2013-02-13 02:15:00,50.2,48.3,29.93,NE,45,3.3,3.3,93,0.11,RA,,0.20,WeatherDisplay:10.37,2013-02-13 07:15:00,
2013-02-13 02:20:00,50.0,48.1,29.93,East,90,4.6,4.6,93,0.12,RA,,0.22,WeatherDisplay:10.37,2013-02-13 07:20:00,
2013-02-13 02:25:00,50.0,48.1,29.93,North,360,2.3,2.3,93,0.11,RA,,0.22,WeatherDisplay:10.37,2013-02-13 07:25:00,
2013-02-13 02:30:00,49.8,47.9,29.93,NNE,22,0.0,0.0,93,0.11,RA,,0.23,WeatherDisplay:10.37,2013-02-13 07:30:00,
2013-02-13 02:35:00,49.6,46.8,29.93,East,90,2.3,2.3,90,0.11,RA,,0.23,WeatherDisplay:10.37,2013-02-13 07:35:00,
2013-02-13 02:40:00,49.5,45.8,29.92,East,90,4.6,4.6,87,0.10,CLR,,0.23,WeatherDisplay:10.37,2013-02-13 07:40:00,
2013-02-13 02:45:00,49.5,45.8,29.92,East,90,4.0,4.0,87,0.09,CLR,,0.23,WeatherDisplay:10.37,2013-02-13 07:45:00,
2013-02-13 02:50:00,49.3,46.2,29.92,East,90,5.8,5.8,89,0.09,RA,,0.24,WeatherDisplay:10.37,2013-02-13 07:50:00,
2013-02-13 02:55:00,49.1,45.7,29.89,East,90,4.6,4.6,88,0.08,RA,,0.24,WeatherDisplay:10.37,2013-02-13 07:55:00,
2013-02-13 03:00:00,49.1,45.4,29.89,SE,135,4.0,4.0,87,0.07,,,0.24,WeatherDisplay:10.37,2013-02-13 08:00:00,
2013-02-13 03:05:00,49.1,45.4,29.88,South,180,3.5,3.5,87,0.06,CLR,,0.24,WeatherDisplay:10.37,2013-02-13 08:05:00,
2013-02-13 03:10:00,49.1,45.4,29.88,ENE,68,3.5,3.5,87,0.05,CLR,,0.24,WeatherDisplay:10.37,2013-02-13 08:10:00,
2013-02-13 03:15:00,49.1,45.4,29.89,East,90,0.0,0.0,87,0.04,CLR,,0.24,WeatherDisplay:10.37,2013-02-13 08:15:00,
2013-02-13 03:20:00,49.1,47.2,29.89,SSE,158,0.0,0.0,93,0.05,RA,,0.27,WeatherDisplay:10.37,2013-02-13 08:20:00,
2013-02-13 03:25:00,49.1,47.2,29.89,South,180,0.0,0.0,93,0.08,RA,,0.30,WeatherDisplay:10.37,2013-02-13 08:25:00,
2013-02-13 03:30:00,49.1,47.2,29.89,East,90,4.6,4.6,93,0.09,RA,,0.32,WeatherDisplay:10.37,2013-02-13 08:30:00,
2013-02-13 03:35:00,49.1,47.2,29.89,ENE,68,3.5,3.5,93,0.09,RA,,0.32,WeatherDisplay:10.37,2013-02-13 08:35:00,
2013-02-13 03:41:00,48.9,47.0,29.87,ESE,112,5.6,5.6,93,0.09,CLR,,0.32,WeatherDisplay:10.37,2013-02-13 08:41:00,
2013-02-13 03:46:00,48.9,47.0,29.87,ESE,112,3.3,3.3,93,0.09,CLR,,0.32,WeatherDisplay:10.37,2013-02-13 08:46:00,
2013-02-13 03:51:00,48.9,47.0,29.84,East,90,6.3,6.3,93,0.08,CLR,,0.32,WeatherDisplay:10.37,2013-02-13 08:51:00,
2013-02-13 03:56:00,48.9,47.0,29.84,ESE,112,4.6,4.6,93,0.08,CLR,,0.32,WeatherDisplay:10.37,2013-02-13 08:56:00,
2013-02-13 04:01:00,48.9,47.0,29.84,NNE,22,3.5,3.5,93,0.08,CLR,,0.32,WeatherDisplay:10.37,2013-02-13 09:01:00,
2013-02-13 04:06:00,48.9,47.0,29.86,NNE,22,3.3,3.3,93,0.10,RA,,0.34,WeatherDisplay:10.37,2013-02-13 09:06:00,
2013-02-13 04:11:00,48.9,47.0,29.86,East,90,4.0,4.0,93,0.10,RA,,0.34,WeatherDisplay:10.37,2013-02-13 09:11:00,
2013-02-13 04:16:00,48.9,47.0,29.82,East,90,3.5,3.5,93,0.11,RA,,0.35,WeatherDisplay:10.37,2013-02-13 09:16:00,
2013-02-13 04:21:00,48.9,47.0,29.82,ESE,112,6.9,6.9,93,0.09,RA,,0.36,WeatherDisplay:10.37,2013-02-13 09:21:00,
2013-02-13 04:26:00,48.9,47.0,29.82,SE,135,4.6,4.6,93,0.06,RA,,0.36,WeatherDisplay:10.37,2013-02-13 09:26:00,
2013-02-13 04:31:00,48.9,47.0,29.84,South,180,3.5,3.5,93,0.07,RA,,0.39,WeatherDisplay:10.37,2013-02-13 09:31:00,
2013-02-13 04:36:00,48.9,47.0,29.84,SSE,158,5.8,5.8,93,0.08,RA,,0.40,WeatherDisplay:10.37,2013-02-13 09:36:00,
2013-02-13 04:41:00,48.9,47.0,29.82,East,90,6.9,6.9,93,0.09,RA,,0.41,WeatherDisplay:10.37,2013-02-13 09:41:00,
2013-02-13 04:46:00,48.9,47.0,29.82,East,90,4.6,4.6,93,0.09,RA,,0.41,WeatherDisplay:10.37,2013-02-13 09:46:00,
2013-02-13 04:51:00,48.9,47.0,29.84,ENE,68,5.8,5.8,93,0.11,RA,,0.43,WeatherDisplay:10.37,2013-02-13 09:51:00,
2013-02-13 04:56:00,48.7,45.9,29.84,East,90,8.6,8.6,90,0.11,RA,,0.43,WeatherDisplay:10.37,2013-02-13 09:56:00,
2013-02-13 05:01:00,48.7,46.8,29.84,East,90,3.5,3.5,93,0.11,,,0.43,WeatherDisplay:10.37,2013-02-13 10:01:00,
2013-02-13 05:06:00,48.7,46.8,29.84,SSE,158,3.5,3.5,93,0.09,CLR,,0.43,WeatherDisplay:10.37,2013-02-13 10:06:00,
2013-02-13 05:11:00,48.7,46.8,29.84,South,180,1.1,0.0,93,0.09,CLR,,0.43,WeatherDisplay:10.37,2013-02-13 10:11:00,
2013-02-13 05:16:00,48.7,46.8,29.85,NNE,22,4.8,4.8,93,0.08,CLR,,0.43,WeatherDisplay:10.37,2013-02-13 10:16:00,
2013-02-13 05:21:00,48.7,46.8,29.85,ESE,112,4.0,4.0,93,0.08,RA,,0.44,WeatherDisplay:10.37,2013-02-13 10:21:00,
2013-02-13 05:26:00,48.6,46.7,29.85,ESE,112,7.1,7.1,93,0.08,RA,,0.44,WeatherDisplay:10.37,2013-02-13 10:26:00,
2013-02-13 05:31:00,48.6,46.7,29.83,East,90,4.8,4.8,93,0.05,CLR,,0.44,WeatherDisplay:10.37,2013-02-13 10:31:00,
2013-02-13 05:36:00,48.4,46.5,29.83,ENE,68,8.6,8.6,93,0.04,CLR,,0.44,WeatherDisplay:10.37,2013-02-13 10:36:00,
2013-02-13 05:41:00,48.4,46.5,29.82,ESE,112,5.8,5.8,93,0.03,CLR,,0.44,WeatherDisplay:10.37,2013-02-13 10:41:00,
2013-02-13 05:46:00,48.4,46.5,29.82,NNE,22,3.5,3.5,93,0.03,CLR,,0.44,WeatherDisplay:10.37,2013-02-13 10:46:00,
2013-02-13 05:51:00,48.4,46.5,29.83,NE,45,4.8,4.8,93,0.01,CLR,,0.44,WeatherDisplay:10.37,2013-02-13 10:51:00,
2013-02-13 05:56:00,48.4,46.5,29.83,ENE,68,6.9,6.9,93,0.01,CLR,,0.44,WeatherDisplay:10.37,2013-02-13 10:56:00,
2013-02-13 06:01:00,48.4,46.5,29.83,East,90,8.1,8.1,93,0.01,CLR,,0.44,WeatherDisplay:10.37,2013-02-13 11:01:00,
2013-02-13 06:06:00,48.4,46.5,29.82,NE,45,6.9,6.9,93,0.01,CLR,,0.44,WeatherDisplay:10.37,2013-02-13 11:06:00,
2013-02-13 06:11:00,48.4,46.5,29.82,East,90,4.0,4.0,93,0.01,CLR,,0.44,WeatherDisplay:10.37,2013-02-13 11:11:00,
2013-02-13 06:16:00,48.4,46.5,29.82,NE,45,5.8,5.8,93,0.01,CLR,,0.44,WeatherDisplay:10.37,2013-02-13 11:16:00,
2013-02-13 06:21:00,48.4,46.5,29.82,NE,45,5.8,5.8,93,0.01,RA,,0.45,WeatherDisplay:10.37,2013-02-13 11:21:00,
2013-02-13 06:26:00,48.2,46.3,29.82,East,90,6.9,6.9,93,0.01,RA,,0.45,WeatherDisplay:10.37,2013-02-13 11:26:00,
2013-02-13 06:31:00,48.2,46.3,29.82,East,90,5.8,5.8,93,0.01,CLR,,0.45,WeatherDisplay:10.37,2013-02-13 11:31:00,
2013-02-13 06:36:00,48.2,46.3,29.82,East,90,6.9,6.9,93,0.02,RA,,0.46,WeatherDisplay:10.37,2013-02-13 11:36:00,
2013-02-13 06:41:00,48.2,46.3,29.82,ENE,68,6.9,6.9,93,0.02,RA,,0.46,WeatherDisplay:10.37,2013-02-13 11:41:00,
2013-02-13 06:46:00,48.0,46.1,29.82,East,90,4.8,4.8,93,0.02,,,0.46,WeatherDisplay:10.37,2013-02-13 11:46:00,
2013-02-13 06:51:00,48.2,46.3,29.82,East,90,9.4,9.4,93,0.02,CLR,,0.46,WeatherDisplay:10.37,2013-02-13 11:51:00,
2013-02-13 06:56:00,48.2,46.3,29.82,NE,45,6.9,6.9,93,0.02,CLR,,0.46,WeatherDisplay:10.37,2013-02-13 11:56:00,
2013-02-13 07:01:00,48.2,46.3,29.82,WNW,292,4.0,4.0,93,0.02,CLR,,0.46,WeatherDisplay:10.37,2013-02-13 12:01:00,
2013-02-13 07:06:00,48.2,46.3,29.82,NE,45,6.9,6.9,93,0.02,CLR,,0.46,WeatherDisplay:10.37,2013-02-13 12:06:00,
2013-02-13 07:11:00,48.2,46.3,29.82,West,270,3.5,3.5,93,0.03,RA,,0.47,WeatherDisplay:10.37,2013-02-13 12:11:00,
2013-02-13 07:16:00,48.2,46.3,29.81,East,90,7.1,7.1,93,0.03,RA,,0.47,WeatherDisplay:10.37,2013-02-13 12:16:00,
2013-02-13 07:21:00,48.2,46.3,29.81,East,90,6.9,6.9,93,0.03,RA,,0.48,WeatherDisplay:10.37,2013-02-13 12:21:00,
2013-02-13 07:26:00,48.2,46.3,29.81,ENE,68,3.5,3.5,93,0.03,RA,,0.48,WeatherDisplay:10.37,2013-02-13 12:26:00,
2013-02-13 07:31:00,48.4,46.5,29.81,East,90,6.3,6.3,93,0.03,CLR,,0.48,WeatherDisplay:10.37,2013-02-13 12:31:00,
2013-02-13 07:36:00,48.4,46.5,29.81,ENE,68,8.1,8.1,93,0.03,RA,,0.49,WeatherDisplay:10.37,2013-02-13 12:36:00,
2013-02-13 07:41:00,48.4,46.5,29.80,ESE,112,4.0,4.0,93,0.03,RA,,0.49,WeatherDisplay:10.37,2013-02-13 12:41:00,
2013-02-13 07:46:00,48.4,46.5,29.80,East,90,7.1,7.1,93,0.03,CLR,,0.49,WeatherDisplay:10.37,2013-02-13 12:46:00,
2013-02-13 07:51:00,48.6,46.7,29.79,NE,45,4.0,4.0,93,0.03,CLR,,0.49,WeatherDisplay:10.37,2013-02-13 12:51:00,
2013-02-13 07:56:00,48.6,46.7,29.79,East,90,9.2,9.2,93,0.03,CLR,,0.49,WeatherDisplay:10.37,2013-02-13 12:56:00,
2013-02-13 08:01:00,48.6,46.7,29.79,East,90,6.9,6.9,93,0.03,CLR,,0.49,WeatherDisplay:10.37,2013-02-13 13:01:00,
2013-02-13 08:06:00,48.7,46.8,29.79,ENE,68,3.5,3.5,93,0.03,CLR,,0.49,WeatherDisplay:10.37,2013-02-13 13:06:00,
2013-02-13 08:11:00,48.7,46.8,29.79,NE,45,4.6,4.6,93,0.06,RA,,0.53,WeatherDisplay:10.37,2013-02-13 13:11:00,
2013-02-13 08:16:00,48.7,46.8,29.79,East,90,3.5,3.7,93,0.06,RA,,0.53,WeatherDisplay:10.37,2013-02-13 13:16:00,
2013-02-13 08:21:00,48.7,46.8,29.79,East,90,6.9,6.9,93,0.05,,,0.53,WeatherDisplay:10.37,2013-02-13 13:21:00,
2013-02-13 08:26:00,48.9,47.0,29.79,NE,45,5.8,5.8,93,0.05,CLR,,0.53,WeatherDisplay:10.37,2013-02-13 13:26:00,
2013-02-13 08:31:00,48.9,47.0,29.78,ESE,112,11.5,11.5,93,0.05,CLR,,0.53,WeatherDisplay:10.37,2013-02-13 13:31:00,
2013-02-13 08:36:00,48.9,47.0,29.78,East,90,10.4,10.4,93,0.04,CLR,,0.53,WeatherDisplay:10.37,2013-02-13 13:36:00,
2013-02-13 08:41:00,49.1,47.2,29.77,NNW,338,8.1,8.1,93,0.04,CLR,,0.53,WeatherDisplay:10.37,2013-02-13 13:41:00,
2013-02-13 08:46:00,49.3,47.4,29.77,East,90,6.9,6.9,93,0.04,CLR,,0.53,WeatherDisplay:10.37,2013-02-13 13:46:00,
2013-02-13 08:51:00,49.3,47.4,29.77,East,90,11.5,11.5,93,0.04,CLR,,0.53,WeatherDisplay:10.37,2013-02-13 13:51:00,
2013-02-13 08:56:00,49.3,47.4,29.77,WNW,292,4.6,4.6,93,0.04,CLR,,0.53,WeatherDisplay:10.37,2013-02-13 13:56:00,
2013-02-13 09:01:00,49.3,47.4,29.77,ESE,112,9.2,9.2,93,0.04,CLR,,0.53,WeatherDisplay:10.37,2013-02-13 14:01:00,
2013-02-13 09:07:00,49.3,47.4,29.77,ESE,112,6.9,6.9,93,0.04,CLR,,0.53,WeatherDisplay:10.37,2013-02-13 14:07:00,
2013-02-13 09:12:00,49.5,47.6,29.77,East,90,5.8,5.8,93,0.00,CLR,,0.53,WeatherDisplay:10.37,2013-02-13 14:12:00,
2013-02-13 09:17:00,49.5,47.6,29.77,ESE,112,9.2,9.2,93,0.00,CLR,,0.53,WeatherDisplay:10.37,2013-02-13 14:17:00,
2013-02-13 09:22:00,49.5,47.6,29.77,ENE,68,7.1,7.1,93,0.00,CLR,,0.53,WeatherDisplay:10.37,2013-02-13 14:22:00,
2013-02-13 09:27:00,49.6,47.7,29.77,ESE,112,5.8,5.8,93,0.00,CLR,,0.53,WeatherDisplay:10.37,2013-02-13 14:27:00,
2013-02-13 09:32:00,49.6,47.7,29.78,NW,315,6.9,6.9,93,0.00,CLR,,0.53,WeatherDisplay:10.37,2013-02-13 14:32:00,
2013-02-13 09:37:00,49.6,47.7,29.78,NE,45,5.8,5.8,93,0.00,CLR,,0.53,WeatherDisplay:10.37,2013-02-13 14:37:00,
2013-02-13 09:42:00,49.6,47.7,29.77,NNE,22,9.2,9.2,93,0.00,CLR,,0.53,WeatherDisplay:10.37,2013-02-13 14:42:00,
2013-02-13 09:47:00,49.6,47.7,29.77,ESE,112,7.9,7.9,93,0.00,CLR,,0.53,WeatherDisplay:10.37,2013-02-13 14:47:00,
2013-02-13 09:52:00,49.8,47.9,29.76,NNE,22,6.9,6.9,93,0.00,CLR,,0.53,WeatherDisplay:10.37,2013-02-13 14:52:00,
2013-02-13 09:57:00,49.8,47.9,29.76,NE,45,6.9,6.9,93,0.01,RA,,0.54,WeatherDisplay:10.37,2013-02-13 14:57:00,
2013-02-13 10:02:00,49.8,47.9,29.76,ESE,112,11.0,11.0,93,0.01,RA,,0.54,WeatherDisplay:10.37,2013-02-13 15:02:00,
2013-02-13 10:07:00,49.8,47.9,29.77,East,90,7.1,7.1,93,0.01,,,0.54,WeatherDisplay:10.37,2013-02-13 15:07:00,
2013-02-13 10:12:00,50.2,48.3,29.77,NE,45,9.2,9.2,93,0.01,CLR,,0.54,WeatherDisplay:10.37,2013-02-13 15:12:00,
2013-02-13 10:17:00,50.2,48.3,29.75,NNE,22,6.9,6.9,93,0.01,CLR,,0.54,WeatherDisplay:10.37,2013-02-13 15:17:00,
2013-02-13 10:22:00,50.4,48.5,29.75,East,90,6.9,6.9,93,0.01,CLR,,0.54,WeatherDisplay:10.37,2013-02-13 15:22:00,
2013-02-13 10:27:00,50.4,48.5,29.75,ENE,68,9.2,9.2,93,0.01,CLR,,0.54,WeatherDisplay:10.37,2013-02-13 15:27:00,
2013-02-13 10:32:00,50.5,48.6,29.74,NNW,338,5.8,5.8,93,0.01,CLR,,0.54,WeatherDisplay:10.37,2013-02-13 15:32:00,
2013-02-13 10:37:00,50.4,48.5,29.74,NNW,338,6.9,6.9,93,0.01,CLR,,0.54,WeatherDisplay:10.37,2013-02-13 15:37:00,
2013-02-13 10:42:00,50.5,48.6,29.76,NNE,22,6.9,6.9,93,0.01,CLR,,0.54,WeatherDisplay:10.37,2013-02-13 15:42:00,
2013-02-13 10:47:00,50.7,48.7,29.76,ESE,112,9.2,9.2,93,0.01,CLR,,0.54,WeatherDisplay:10.37,2013-02-13 15:47:00,
2013-02-13 10:52:00,51.1,49.1,29.77,East,90,12.5,12.5,93,0.01,CLR,,0.54,WeatherDisplay:10.37,2013-02-13 15:52:00,
2013-02-13 10:57:00,50.9,48.9,29.77,ESE,112,5.8,5.8,93,0.00,CLR,,0.54,WeatherDisplay:10.37,2013-02-13 15:57:00,
2013-02-13 11:02:00,50.9,48.9,29.77,NW,315,5.6,5.6,93,0.00,CLR,,0.54,WeatherDisplay:10.37,2013-02-13 16:02:00,
2013-02-13 11:07:00,50.9,48.9,29.76,NNE,22,8.1,8.1,93,0.00,CLR,,0.54,WeatherDisplay:10.37,2013-02-13 16:07:00,
2013-02-13 11:12:00,50.9,48.9,29.76,NE,45,9.2,9.2,93,0.00,CLR,,0.54,WeatherDisplay:10.37,2013-02-13 16:12:00,
2013-02-13 11:17:00,50.9,48.9,29.77,East,90,13.8,13.8,93,0.00,CLR,,0.54,WeatherDisplay:10.37,2013-02-13 16:17:00,
2013-02-13 11:22:00,51.3,49.3,29.77,ESE,112,6.9,6.9,93,0.00,CLR,,0.54,WeatherDisplay:10.37,2013-02-13 16:22:00,
2013-02-13 11:27:00,51.4,49.4,29.77,East,90,5.6,5.6,93,0.00,CLR,,0.54,WeatherDisplay:10.37,2013-02-13 16:27:00,
2013-02-13 11:32:00,51.4,49.4,29.75,East,90,4.6,4.6,93,0.00,CLR,,0.54,WeatherDisplay:10.37,2013-02-13 16:32:00,
2013-02-13 11:37:00,51.4,49.4,29.75,NNE,22,6.9,6.9,93,0.00,CLR,,0.54,WeatherDisplay:10.37,2013-02-13 16:37:00,
2013-02-13 11:42:00,51.8,49.8,29.74,East,90,10.4,10.4,93,0.00,CLR,,0.54,WeatherDisplay:10.37,2013-02-13 16:42:00,
2013-02-13 11:47:00,52.2,50.2,29.74,East,90,8.1,8.1,93,0.00,CLR,,0.54,WeatherDisplay:10.37,2013-02-13 16:47:00,
2013-02-13 11:52:00,52.9,50.0,29.72,ESE,112,7.1,7.1,90,0.00,CLR,,0.54,WeatherDisplay:10.37,2013-02-13 16:52:00,
2013-02-13 11:57:00,53.4,49.6,29.72,NNE,22,4.6,4.6,87,0.00,CLR,,0.54,WeatherDisplay:10.37,2013-02-13 16:57:00,
2013-02-13 12:02:00,54.7,51.2,29.72,NE,45,5.8,5.8,88,0.00,CLR,,0.54,WeatherDisplay:10.37,2013-02-13 17:02:00,
2013-02-13 12:07:00,54.3,49.9,29.72,ESE,112,6.9,6.9,85,0.00,CLR,,0.54,WeatherDisplay:10.37,2013-02-13 17:07:00,
2013-02-13 12:12:00,54.3,49.6,29.72,ESE,112,9.2,9.2,84,0.00,CLR,,0.54,WeatherDisplay:10.37,2013-02-13 17:12:00,
2013-02-13 12:17:00,54.5,50.1,29.72,East,90,9.2,9.2,85,0.00,CLR,,0.54,WeatherDisplay:10.37,2013-02-13 17:17:00,
2013-02-13 12:22:00,54.9,50.5,29.72,SSE,158,6.9,6.9,85,0.00,CLR,,0.54,WeatherDisplay:10.37,2013-02-13 17:22:00,
2013-02-13 12:27:00,55.4,50.6,29.71,SSE,158,6.3,6.3,84,0.00,CLR,,0.54,WeatherDisplay:10.37,2013-02-13 17:27:00,
2013-02-13 12:32:00,55.9,50.8,29.71,East,90,7.9,7.9,83,0.00,CLR,,0.54,WeatherDisplay:10.37,2013-02-13 17:32:00,
2013-02-13 12:37:00,55.2,50.1,29.71,East,90,7.1,7.1,83,0.00,CLR,,0.54,WeatherDisplay:10.37,2013-02-13 17:37:00,
2013-02-13 12:42:00,55.0,50.3,29.70,East,90,6.3,6.3,84,0.00,CLR,,0.54,WeatherDisplay:10.37,2013-02-13 17:42:00,
2013-02-13 12:47:00,55.0,50.3,29.70,NNW,338,5.8,5.8,84,0.00,CLR,,0.54,WeatherDisplay:10.37,2013-02-13 17:47:00,
2013-02-13 12:52:00,55.0,50.3,29.71,East,90,4.8,4.8,84,0.00,CLR,,0.54,WeatherDisplay:10.37,2013-02-13 17:52:00,
2013-02-13 12:57:00,55.0,50.3,29.71,ESE,112,7.1,7.1,84,0.00,CLR,,0.54,WeatherDisplay:10.37,2013-02-13 17:57:00,
2013-02-13 13:02:00,54.9,50.2,29.71,NE,45,6.9,6.9,84,0.00,CLR,,0.54,WeatherDisplay:10.37,2013-02-13 18:02:00,
2013-02-13 13:07:00,55.2,50.4,29.71,NNW,338,4.8,4.8,84,0.00,CLR,,0.54,WeatherDisplay:10.37,2013-02-13 18:07:00,
2013-02-13 13:12:00,55.2,50.1,29.71,East,90,6.9,6.9,83,0.00,CLR,,0.54,WeatherDisplay:10.37,2013-02-13 18:12:00,
2013-02-13 13:17:00,55.4,50.6,29.69,SE,135,3.5,4.2,84,0.00,CLR,,0.54,WeatherDisplay:10.37,2013-02-13 18:17:00,
2013-02-13 13:22:00,55.2,50.4,29.69,ESE,112,0.0,0.0,84,0.00,CLR,,0.54,WeatherDisplay:10.37,2013-02-13 18:22:00,
2013-02-13 13:27:00,55.6,50.8,29.68,East,90,3.5,3.5,84,0.00,CLR,,0.54,WeatherDisplay:10.37,2013-02-13 18:27:00,
2013-02-13 13:32:00,55.9,50.8,29.68,ENE,68,3.5,3.5,83,0.00,CLR,,0.54,WeatherDisplay:10.37,2013-02-13 18:32:00,
2013-02-13 13:37:00,55.8,50.7,29.68,NNE,22,3.5,3.5,83,0.00,CLR,,0.54,WeatherDisplay:10.37,2013-02-13 18:37:00,
2013-02-13 13:42:00,55.9,50.8,29.70,ESE,112,3.5,3.5,83,0.00,CLR,,0.54,WeatherDisplay:10.37,2013-02-13 18:42:00,
2013-02-13 13:47:00,55.9,50.8,29.70,NNE,22,3.5,3.5,83,0.00,CLR,,0.54,WeatherDisplay:10.37,2013-02-13 18:47:00,
2013-02-13 13:52:00,56.5,51.4,29.68,NW,315,2.3,2.3,83,0.00,CLR,,0.54,WeatherDisplay:10.37,2013-02-13 18:52:00,
2013-02-13 13:57:00,56.8,51.7,29.68,West,270,3.5,3.5,83,0.00,CLR,,0.54,WeatherDisplay:10.37,2013-02-13 18:57:00,
2013-02-13 14:02:00,56.8,51.7,29.67,West,270,2.3,2.4,83,0.00,CLR,,0.54,WeatherDisplay:10.37,2013-02-13 19:02:00,
2013-02-13 14:07:00,56.7,51.3,29.67,NNE,22,4.0,4.0,82,0.00,CLR,,0.54,WeatherDisplay:10.37,2013-02-13 19:07:00,
2013-02-13 14:12:00,56.5,51.7,29.67,NW,315,3.5,3.5,84,0.00,CLR,,0.54,WeatherDisplay:10.37,2013-02-13 19:12:00,
2013-02-13 14:17:00,56.8,52.0,29.68,NW,315,2.5,2.5,84,0.00,CLR,,0.54,WeatherDisplay:10.37,2013-02-13 19:17:00,
2013-02-13 14:22:00,56.8,51.7,29.68,NNE,22,0.0,0.0,83,0.00,CLR,,0.54,WeatherDisplay:10.37,2013-02-13 19:22:00,
2013-02-13 14:27:00,56.8,52.0,29.67,South,180,0.0,0.0,84,0.00,CLR,,0.54,WeatherDisplay:10.37,2013-02-13 19:27:00,
2013-02-13 14:32:00,57.2,52.4,29.67,West,270,3.3,3.3,84,0.00,CLR,,0.54,WeatherDisplay:10.37,2013-02-13 19:32:00,
2013-02-13 14:37:00,57.0,51.9,29.67,West,270,0.0,0.0,83,0.00,CLR,,0.54,WeatherDisplay:10.37,2013-02-13 19:37:00,
2013-02-13 14:42:00,57.0,51.9,29.67,West,270,2.5,2.5,83,0.00,CLR,,0.54,WeatherDisplay:10.37,2013-02-13 19:42:00,
2013-02-13 14:47:00,57.0,51.9,29.67,SSW,202,2.3,2.3,83,0.00,CLR,,0.54,WeatherDisplay:10.37,2013-02-13 19:47:00,
2013-02-13 14:52:00,57.2,52.4,29.67,SW,225,0.0,0.0,84,0.00,CLR,,0.54,WeatherDisplay:10.37,2013-02-13 19:52:00,
2013-02-13 14:57:00,57.2,52.4,29.67,SW,225,1.1,0.0,84,0.00,CLR,,0.54,WeatherDisplay:10.37,2013-02-13 19:57:00,
2013-02-13 15:02:00,57.2,52.4,29.67,WNW,292,3.5,3.5,84,0.00,CLR,,0.54,WeatherDisplay:10.37,2013-02-13 20:02:00,
2013-02-13 15:08:00,56.3,51.8,29.67,SSE,158,6.9,6.9,85,0.00,CLR,,0.54,WeatherDisplay:10.37,2013-02-13 20:08:00,
2013-02-13 15:13:00,56.3,51.8,29.67,West,270,1.1,1.1,85,0.00,CLR,,0.54,WeatherDisplay:10.37,2013-02-13 20:13:00,
2013-02-13 15:18:00,56.5,52.0,29.65,West,270,3.5,3.5,85,0.00,CLR,,0.54,WeatherDisplay:10.37,2013-02-13 20:18:00,
2013-02-13 15:23:00,56.1,51.7,29.65,West,270,0.0,0.0,85,0.00,CLR,,0.54,WeatherDisplay:10.37,2013-02-13 20:23:00,
2013-02-13 15:28:00,56.3,51.8,29.64,SW,225,4.0,4.0,85,0.00,CLR,,0.54,WeatherDisplay:10.37,2013-02-13 20:28:00,
2013-02-13 15:33:00,56.1,51.7,29.64,WNW,292,3.5,3.5,85,0.00,CLR,,0.54,WeatherDisplay:10.37,2013-02-13 20:33:00,
2013-02-13 15:38:00,55.8,51.4,29.64,West,270,3.5,3.5,85,0.00,CLR,,0.54,WeatherDisplay:10.37,2013-02-13 20:38:00,
2013-02-13 15:43:00,55.6,51.2,29.69,NW,315,0.0,0.0,85,0.00,CLR,,0.54,WeatherDisplay:10.37,2013-02-13 20:43:00,
2013-02-13 15:48:00,55.4,51.0,29.69,West,270,2.5,2.5,85,0.00,CLR,,0.54,WeatherDisplay:10.37,2013-02-13 20:48:00,
2013-02-13 15:53:00,55.4,51.0,29.68,West,270,0.0,0.0,85,0.00,CLR,,0.54,WeatherDisplay:10.37,2013-02-13 20:53:00,
2013-02-13 15:58:00,55.0,50.9,29.68,West,270,2.3,2.3,86,0.00,CLR,,0.54,WeatherDisplay:10.37,2013-02-13 20:58:00,
2013-02-13 16:03:00,55.2,51.1,29.68,SW,225,3.3,3.3,86,0.00,CLR,,0.54,WeatherDisplay:10.37,2013-02-13 21:03:00,
2013-02-13 16:08:00,55.2,52.6,29.64,South,180,3.5,3.5,91,0.00,CLR,,0.54,WeatherDisplay:10.37,2013-02-13 21:08:00,
2013-02-13 16:13:00,55.2,53.2,29.64,SE,135,3.5,3.5,93,0.00,CLR,,0.54,WeatherDisplay:10.37,2013-02-13 21:13:00,
2013-02-13 16:18:00,55.2,53.2,29.69,WSW,248,0.0,0.0,93,0.00,CLR,,0.54,WeatherDisplay:10.37,2013-02-13 21:18:00,
2013-02-13 16:23:00,55.2,53.2,29.69,West,270,4.6,4.6,93,0.00,CLR,,0.54,WeatherDisplay:10.37,2013-02-13 21:23:00,
2013-02-13 16:28:00,55.2,53.2,29.67,West,270,3.5,3.5,93,0.00,CLR,,0.54,WeatherDisplay:10.37,2013-02-13 21:28:00,
2013-02-13 16:33:00,55.4,53.4,29.67,WSW,248,3.5,3.5,93,0.00,CLR,,0.54,WeatherDisplay:10.37,2013-02-13 21:33:00,
2013-02-13 16:38:00,55.6,53.6,29.67,WSW,248,4.6,4.6,93,0.00,CLR,,0.54,WeatherDisplay:10.37,2013-02-13 21:38:00,
2013-02-13 16:43:00,55.6,53.6,29.65,West,270,4.6,4.6,93,0.00,CLR,,0.54,WeatherDisplay:10.37,2013-02-13 21:43:00,
2013-02-13 16:48:00,55.4,53.4,29.65,WSW,248,5.8,5.8,93,0.00,CLR,,0.54,WeatherDisplay:10.37,2013-02-13 21:48:00,
2013-02-13 16:53:00,55.6,53.6,29.66,West,270,3.5,3.5,93,0.00,CLR,,0.54,WeatherDisplay:10.37,2013-02-13 21:53:00,
2013-02-13 16:58:00,55.6,53.6,29.66,WSW,248,3.5,3.5,93,0.00,CLR,,0.54,WeatherDisplay:10.37,2013-02-13 21:58:00,
2013-02-13 17:03:00,55.6,53.6,29.66,West,270,3.5,3.5,93,0.00,CLR,,0.54,WeatherDisplay:10.37,2013-02-13 22:03:00,
2013-02-13 17:08:00,55.6,53.6,29.65,SW,225,3.5,3.5,93,0.00,CLR,,0.54,WeatherDisplay:10.37,2013-02-13 22:08:00,
2013-02-13 17:13:00,55.8,53.8,29.65,WSW,248,4.6,4.6,93,0.00,CLR,,0.54,WeatherDisplay:10.37,2013-02-13 22:13:00,
2013-02-13 17:18:00,55.6,53.6,29.64,WSW,248,5.6,5.6,93,0.00,CLR,,0.54,WeatherDisplay:10.37,2013-02-13 22:18:00,
2013-02-13 17:23:00,55.8,53.8,29.64,West,270,2.5,2.5,93,0.00,CLR,,0.54,WeatherDisplay:10.37,2013-02-13 22:23:00,
2013-02-13 17:28:00,55.8,53.8,29.66,West,270,3.5,3.5,93,0.00,CLR,,0.54,WeatherDisplay:10.37,2013-02-13 22:28:00,
2013-02-13 17:33:00,55.8,53.8,29.66,West,270,3.5,3.5,93,0.00,CLR,,0.54,WeatherDisplay:10.37,2013-02-13 22:33:00,
2013-02-13 17:38:00,55.8,53.8,29.66,WSW,248,3.5,3.5,93,0.00,CLR,,0.54,WeatherDisplay:10.37,2013-02-13 22:38:00,
2013-02-13 17:43:00,55.8,53.8,29.66,SSW,202,5.6,5.6,93,0.00,CLR,,0.54,WeatherDisplay:10.37,2013-02-13 22:43:00,
2013-02-13 17:48:00,55.8,53.8,29.66,WSW,248,3.5,3.5,93,0.00,CLR,,0.54,WeatherDisplay:10.37,2013-02-13 22:48:00,
2013-02-13 17:53:00,55.9,53.9,29.67,SW,225,3.5,3.5,93,0.00,CLR,,0.54,WeatherDisplay:10.37,2013-02-13 22:53:00,
2013-02-13 17:58:00,55.9,53.9,29.67,West,270,3.5,3.5,93,0.00,CLR,,0.54,WeatherDisplay:10.37,2013-02-13 22:58:00,
2013-02-13 18:03:00,55.9,53.9,29.67,West,270,3.5,3.5,93,0.00,CLR,,0.54,WeatherDisplay:10.37,2013-02-13 23:03:00,
2013-02-13 18:08:00,56.1,54.1,29.67,WNW,292,3.5,3.5,93,0.00,CLR,,0.54,WeatherDisplay:10.37,2013-02-13 23:08:00,
2013-02-13 18:13:00,56.1,54.1,29.67,West,270,4.0,4.0,93,0.00,CLR,,0.54,WeatherDisplay:10.37,2013-02-13 23:13:00,
2013-02-13 18:18:00,55.9,53.9,29.69,West,270,4.6,4.6,93,0.00,CLR,,0.54,WeatherDisplay:10.37,2013-02-13 23:18:00,
2013-02-13 18:23:00,55.9,53.9,29.69,WSW,248,4.6,4.6,93,0.00,CLR,,0.54,WeatherDisplay:10.37,2013-02-13 23:23:00,
2013-02-13 18:28:00,55.8,53.8,29.68,WSW,248,3.5,3.5,93,0.00,CLR,,0.54,WeatherDisplay:10.37,2013-02-13 23:28:00,
2013-02-13 18:33:00,55.9,53.9,29.68,NW,315,3.5,3.5,93,0.00,CLR,,0.54,WeatherDisplay:10.37,2013-02-13 23:33:00,
2013-02-13 18:38:00,55.8,53.8,29.68,West,270,5.8,5.8,93,0.00,CLR,,0.54,WeatherDisplay:10.37,2013-02-13 23:38:00,
2013-02-13 18:43:00,55.8,53.8,29.68,West,270,4.0,4.0,93,0.00,CLR,,0.54,WeatherDisplay:10.37,2013-02-13 23:43:00,
2013-02-13 18:48:00,55.6,53.6,29.68,SW,225,4.0,4.0,93,0.00,CLR,,0.54,WeatherDisplay:10.37,2013-02-13 23:48:00,
2013-02-13 18:53:00,55.6,53.6,29.68,South,180,7.1,7.1,93,0.00,CLR,,0.54,WeatherDisplay:10.37,2013-02-13 23:53:00,
2013-02-13 18:58:00,55.6,53.6,29.68,West,270,2.5,2.5,93,0.00,CLR,,0.54,WeatherDisplay:10.37,2013-02-13 23:58:00,
2013-02-13 19:03:00,55.6,53.6,29.69,West,270,3.5,3.5,93,0.00,CLR,,0.54,WeatherDisplay:10.37,2013-02-14 00:03:00,
2013-02-13 19:08:00,55.4,53.4,29.69,WSW,248,4.8,4.8,93,0.00,CLR,,0.54,WeatherDisplay:10.37,2013-02-14 00:08:00,
2013-02-13 19:13:00,55.6,53.6,29.69,West,270,4.6,4.6,93,0.00,CLR,,0.54,WeatherDisplay:10.37,2013-02-14 00:13:00,
2013-02-13 19:18:00,55.6,53.6,29.69,SSW,202,2.5,2.5,93,0.00,CLR,,0.54,WeatherDisplay:10.37,2013-02-14 00:18:00,
2013-02-13 19:23:00,55.4,53.4,29.69,WSW,248,2.3,2.3,93,0.00,CLR,,0.54,WeatherDisplay:10.37,2013-02-14 00:23:00,
2013-02-13 19:28:00,55.4,54.8,29.69,West,270,4.6,4.6,98,0.00,CLR,,0.54,WeatherDisplay:10.37,2013-02-14 00:28:00,
2013-02-13 19:33:00,55.6,55.0,29.69,WNW,292,4.0,4.0,98,0.00,CLR,,0.54,WeatherDisplay:10.37,2013-02-14 00:33:00,
2013-02-13 19:38:00,55.6,55.0,29.69,NW,315,3.5,3.5,98,0.00,CLR,,0.54,WeatherDisplay:10.37,2013-02-14 00:38:00,
2013-02-13 19:43:00,55.6,55.0,29.70,South,180,3.5,3.5,98,0.01,RA,,0.55,WeatherDisplay:10.37,2013-02-14 00:43:00,
2013-02-13 19:49:00,55.4,54.8,29.70,WSW,248,1.1,0.0,98,0.01,RA,,0.55,WeatherDisplay:10.37,2013-02-14 00:49:00,
2013-02-13 19:54:00,55.4,54.8,29.70,West,270,3.5,3.5,98,0.01,,,0.55,WeatherDisplay:10.37,2013-02-14 00:54:00,
2013-02-13 19:59:00,55.4,54.8,29.70,West,270,2.3,2.3,98,0.01,CLR,,0.55,WeatherDisplay:10.37,2013-02-14 00:59:00,
2013-02-13 20:04:00,55.4,54.8,29.68,WSW,248,2.5,2.5,98,0.01,CLR,,0.55,WeatherDisplay:10.37,2013-02-14 01:04:00,
2013-02-13 20:09:00,55.2,54.6,29.68,West,270,0.0,0.0,98,0.01,CLR,,0.55,WeatherDisplay:10.37,2013-02-14 01:09:00,
2013-02-13 20:14:00,55.2,54.6,29.68,SSE,158,0.0,0.0,98,0.01,CLR,,0.55,WeatherDisplay:10.37,2013-02-14 01:14:00,
2013-02-13 20:19:00,55.2,54.6,29.69,WNW,292,3.5,3.5,98,0.01,CLR,,0.55,WeatherDisplay:10.37,2013-02-14 01:19:00,
2013-02-13 20:24:00,55.2,54.6,29.69,NW,315,3.5,3.5,98,0.01,CLR,,0.55,WeatherDisplay:10.37,2013-02-14 01:24:00,
2013-02-13 20:29:00,55.9,55.3,29.69,SE,135,3.5,0.0,98,0.01,CLR,,0.55,WeatherDisplay:10.37,2013-02-14 01:29:00,
2013-02-13 20:34:00,55.4,54.8,29.69,WNW,292,6.9,6.9,98,0.01,CLR,,0.55,WeatherDisplay:10.37,2013-02-14 01:34:00,
2013-02-13 20:39:00,55.6,55.0,29.70,NE,45,6.9,6.9,98,0.01,CLR,,0.55,WeatherDisplay:10.37,2013-02-14 01:39:00,
2013-02-13 20:44:00,55.6,55.0,29.70,WNW,292,5.8,5.8,98,0.00,CLR,,0.55,WeatherDisplay:10.37,2013-02-14 01:44:00,
2013-02-13 20:49:00,55.6,55.0,29.70,WNW,292,6.9,6.9,98,0.00,CLR,,0.55,WeatherDisplay:10.37,2013-02-14 01:49:00,
2013-02-13 20:54:00,55.6,53.3,29.71,WNW,292,7.9,7.9,92,0.00,CLR,,0.55,WeatherDisplay:10.37,2013-02-14 01:54:00,
2013-02-13 20:59:00,55.6,53.3,29.71,WNW,292,8.1,8.1,92,0.01,RA,,0.56,WeatherDisplay:10.37,2013-02-14 01:59:00,
2013-02-13 21:04:00,55.4,53.1,29.72,WNW,292,9.2,9.2,92,0.01,RA,,0.56,WeatherDisplay:10.37,2013-02-14 02:04:00,
2013-02-13 21:09:00,55.2,53.8,29.72,West,270,4.8,4.8,95,0.01,,,0.56,WeatherDisplay:10.37,2013-02-14 02:09:00,
2013-02-13 21:14:00,55.0,52.7,29.72,West,270,6.9,6.9,92,0.01,CLR,,0.56,WeatherDisplay:10.37,2013-02-14 02:14:00,
2013-02-13 21:19:00,54.7,52.1,29.73,West,270,8.1,8.1,91,0.02,RA,,0.57,WeatherDisplay:10.37,2013-02-14 02:19:00,
2013-02-13 21:24:00,54.3,51.1,29.73,West,270,12.7,12.7,89,0.02,RA,,0.57,WeatherDisplay:10.37,2013-02-14 02:24:00,
2013-02-13 21:29:00,54.1,50.9,29.74,West,270,9.2,9.2,89,0.02,,,0.57,WeatherDisplay:10.37,2013-02-14 02:29:00,
2013-02-13 21:34:00,53.8,50.9,29.74,West,270,6.9,6.9,90,0.03,RA,,0.58,WeatherDisplay:10.37,2013-02-14 02:34:00,
2013-02-13 21:39:00,53.6,50.7,29.74,NW,315,6.9,6.9,90,0.03,RA,,0.58,WeatherDisplay:10.37,2013-02-14 02:39:00,
2013-02-13 21:44:00,53.4,50.8,29.74,ESE,112,3.3,3.3,91,0.03,CLR,,0.58,WeatherDisplay:10.37,2013-02-14 02:44:00,
2013-02-13 21:49:00,53.2,50.6,29.74,WNW,292,5.8,5.8,91,0.03,CLR,,0.58,WeatherDisplay:10.37,2013-02-14 02:49:00,
2013-02-13 21:54:00,53.2,50.6,29.76,SSE,158,3.5,3.5,91,0.03,CLR,,0.58,WeatherDisplay:10.37,2013-02-14 02:54:00,
2013-02-13 21:59:00,53.1,50.5,29.76,NW,315,5.6,5.6,91,0.02,CLR,,0.58,WeatherDisplay:10.37,2013-02-14 02:59:00,
2013-02-13 22:04:00,53.1,49.9,29.74,West,270,5.8,5.8,89,0.02,CLR,,0.58,WeatherDisplay:10.37,2013-02-14 03:04:00,
2013-02-13 22:09:00,53.1,49.9,29.74,NNW,338,5.6,5.6,89,0.02,CLR,,0.58,WeatherDisplay:10.37,2013-02-14 03:09:00,
2013-02-13 22:14:00,53.1,49.9,29.74,West,270,6.9,6.9,89,0.02,CLR,,0.58,WeatherDisplay:10.37,2013-02-14 03:14:00,
2013-02-13 22:19:00,53.1,50.2,29.75,West,270,3.5,3.5,90,0.01,CLR,,0.58,WeatherDisplay:10.37,2013-02-14 03:19:00,
2013-02-13 22:24:00,52.9,49.7,29.75,NNW,338,4.6,4.6,89,0.01,CLR,,0.58,WeatherDisplay:10.37,2013-02-14 03:24:00,
2013-02-13 22:29:00,52.9,49.4,29.72,WNW,292,5.8,5.8,88,0.01,CLR,,0.58,WeatherDisplay:10.37,2013-02-14 03:29:00,
2013-02-13 22:34:00,52.9,50.0,29.72,West,270,3.5,3.5,90,0.00,CLR,,0.58,WeatherDisplay:10.37,2013-02-14 03:34:00,
2013-02-13 22:39:00,52.9,49.7,29.76,NW,315,5.6,5.6,89,0.00,CLR,,0.58,WeatherDisplay:10.37,2013-02-14 03:39:00,
2013-02-13 22:44:00,52.7,49.5,29.76,WSW,248,0.0,0.0,89,0.00,CLR,,0.58,WeatherDisplay:10.37,2013-02-14 03:44:00,
2013-02-13 22:49:00,52.5,49.4,29.76,NW,315,5.8,5.8,89,0.00,CLR,,0.58,WeatherDisplay:10.37,2013-02-14 03:49:00,
2013-02-13 22:54:00,52.5,49.4,29.76,WNW,292,5.8,5.8,89,0.00,CLR,,0.58,WeatherDisplay:10.37,2013-02-14 03:54:00,
2013-02-13 22:59:00,52.3,49.2,29.76,WNW,292,6.3,6.3,89,0.00,CLR,,0.58,WeatherDisplay:10.37,2013-02-14 03:59:00,
2013-02-13 23:04:00,52.3,48.5,29.77,WNW,292,5.8,5.8,87,0.00,CLR,,0.58,WeatherDisplay:10.37,2013-02-14 04:04:00,
2013-02-13 23:09:00,52.3,48.5,29.77,WNW,292,7.1,7.1,87,0.00,CLR,,0.58,WeatherDisplay:10.37,2013-02-14 04:09:00,
2013-02-13 23:14:00,52.0,47.9,29.77,North,360,5.8,5.8,86,0.00,CLR,,0.58,WeatherDisplay:10.37,2013-02-14 04:14:00,
2013-02-13 23:19:00,52.2,47.5,29.77,West,270,3.5,3.5,84,0.00,CLR,,0.58,WeatherDisplay:10.37,2013-02-14 04:19:00,
2013-02-13 23:24:00,52.0,47.0,29.77,West,270,8.1,8.1,83,0.00,CLR,,0.58,WeatherDisplay:10.37,2013-02-14 04:24:00,
2013-02-13 23:29:00,52.0,47.0,29.79,NNW,338,6.9,6.9,83,0.00,CLR,,0.58,WeatherDisplay:10.37,2013-02-14 04:29:00,
2013-02-13 23:34:00,52.0,47.0,29.79,West,270,8.1,8.1,83,0.00,CLR,,0.58,WeatherDisplay:10.37,2013-02-14 04:34:00,
2013-02-13 23:39:00,52.0,47.0,29.77,NNW,338,8.1,8.1,83,0.00,CLR,,0.58,WeatherDisplay:10.37,2013-02-14 04:39:00,
2013-02-13 23:44:00,51.8,46.8,29.77,NW,315,8.1,8.1,83,0.00,CLR,,0.58,WeatherDisplay:10.37,2013-02-14 04:44:00,
2013-02-13 23:49:00,51.8,46.8,29.77,WNW,292,4.6,4.6,83,0.00,CLR,,0.58,WeatherDisplay:10.37,2013-02-14 04:49:00,
2013-02-13 23:54:00,51.4,47.0,29.79,SW,225,5.8,5.8,85,0.00,CLR,,0.58,WeatherDisplay:10.37,2013-02-14 04:54:00,
2013-02-13 23:59:00,51.3,46.9,29.79,West,270,4.0,4.0,85,0.00,RA,,0.00,WeatherDisplay:10.37,2013-02-14 04:59:00,